createdAt,value
2019-05-22T00:02:35.527Z,12.53
2019-05-22T00:05:18.111Z,12.53
2019-05-22T00:07:47.950Z,13.73
2019-05-22T00:10:26.068Z,13.40
2019-05-22T00:12:58.032Z,14.53
2019-05-22T00:15:29.266Z,14.63
2019-05-22T00:17:59.232Z,15.07
2019-05-22T00:20:29.493Z,15.60
2019-05-22T00:23:01.878Z,15.13
2019-05-22T00:25:33.369Z,15.97
2019-05-22T00:28:03.125Z,15.83
2019-05-22T00:30:35.786Z,16.17
2019-05-22T00:33:08.122Z,16.80
2019-05-22T00:35:38.498Z,16.27
2019-05-22T00:38:09.415Z,16.63
2019-05-22T00:40:44.925Z,16.47
2019-05-22T00:43:16.952Z,16.63
2019-05-22T00:45:49.611Z,17.27
2019-05-22T00:48:23.538Z,16.43
2019-05-22T00:51:15.426Z,17.07
2019-05-22T00:53:58.416Z,16.37
2019-05-22T00:56:51.108Z,17.07
2019-05-22T00:59:26.754Z,16.30
2019-05-22T01:01:59.583Z,16.80
2019-05-22T01:04:34.840Z,16.03
2019-05-22T01:07:09.181Z,14.67
2019-05-22T01:09:41.767Z,13.90
2019-05-22T01:12:17.267Z,13.90
2019-05-22T01:14:46.979Z,14.63
2019-05-22T01:17:17.602Z,13.07
2019-05-22T01:19:51.188Z,13.27
2019-05-22T01:22:22.943Z,12.57
2019-05-22T01:24:56.695Z,12.07
2019-05-22T01:27:27.425Z,11.00
2019-05-22T01:29:57.782Z,11.27
2019-05-22T01:32:34.557Z,11.10
2019-05-22T01:35:04.725Z,9.93
2019-05-22T01:37:36.727Z,9.23
2019-05-22T01:40:27.584Z,10.27
2019-05-22T01:42:59.303Z,8.83
2019-05-22T01:45:30.862Z,9.03
2019-05-22T01:48:10.859Z,9.47
2019-05-22T01:50:49.205Z,8.17
2019-05-22T01:53:21.473Z,9.77
2019-05-22T01:55:57.146Z,9.53
2019-05-22T01:58:28.033Z,9.63
2019-05-22T02:00:58.923Z,9.53
2019-05-22T02:03:30.259Z,10.37
2019-05-22T02:06:00.726Z,9.60
2019-05-22T02:08:32.314Z,8.33
2019-05-22T02:11:02.273Z,9.90
2019-05-22T02:13:40.262Z,9.90
2019-05-22T02:16:11.590Z,9.40
2019-05-22T02:18:43.593Z,10.00
2019-05-22T02:21:13.267Z,10.10
2019-05-22T02:23:43.688Z,9.67
2019-05-22T02:26:13.391Z,9.53
2019-05-22T02:28:43.228Z,9.47
2019-05-22T02:31:17.096Z,9.80
2019-05-22T02:34:03.816Z,9.10
2019-05-22T02:36:37.083Z,8.73
2019-05-22T02:39:18.062Z,8.37
2019-05-22T02:41:52.408Z,7.90
2019-05-22T02:44:22.920Z,8.10
2019-05-22T02:46:53.216Z,7.53
2019-05-22T02:49:23.929Z,7.77
2019-05-22T02:51:54.109Z,8.00
2019-05-22T02:54:23.996Z,7.33
2019-05-22T02:56:54.002Z,8.10
2019-05-22T02:59:24.040Z,7.10
2019-05-22T03:01:54.864Z,6.73
2019-05-22T03:04:25.194Z,6.60
2019-05-22T03:06:55.177Z,6.03
2019-05-22T03:09:27.765Z,5.67
2019-05-22T03:12:01.343Z,6.00
2019-05-22T03:14:32.911Z,5.57
2019-05-22T03:17:05.279Z,5.77
2019-05-22T03:19:41.214Z,5.00
2019-05-22T03:22:21.161Z,5.07
2019-05-22T03:24:51.838Z,4.67
2019-05-22T03:27:29.034Z,4.83
2019-05-22T03:29:58.715Z,5.17
2019-05-22T03:32:28.459Z,5.73
2019-05-22T03:34:58.499Z,5.50
2019-05-22T03:37:28.575Z,6.07
2019-05-22T03:39:58.644Z,6.93
2019-05-22T03:42:28.326Z,6.83
2019-05-22T03:44:57.931Z,6.53
2019-05-22T03:47:28.508Z,7.50
2019-05-22T03:49:58.784Z,6.50
2019-05-22T03:52:28.187Z,6.43
2019-05-22T03:54:57.605Z,6.90
2019-05-22T03:57:29.121Z,6.80
2019-05-22T03:59:59.105Z,6.70
2019-05-22T04:02:28.916Z,6.73
2019-05-22T04:04:58.868Z,7.70
2019-05-22T04:07:28.532Z,7.13
2019-05-22T04:09:58.129Z,7.20
2019-05-22T04:12:27.740Z,6.73
2019-05-22T04:14:58.008Z,6.80
2019-05-22T04:17:28.496Z,6.63
2019-05-22T04:19:58.151Z,7.00
2019-05-22T04:22:27.653Z,7.10
2019-05-22T04:24:57.592Z,6.60
2019-05-22T04:27:28.025Z,6.83
2019-05-22T04:29:57.530Z,6.70
2019-05-22T04:32:30.455Z,7.37
2019-05-22T04:35:12.730Z,7.00
2019-05-22T04:37:43.130Z,7.17
2019-05-22T04:40:57.983Z,7.30
2019-05-22T04:43:33.799Z,7.07
2019-05-22T04:46:06.386Z,7.97
2019-05-22T04:48:37.665Z,8.10
2019-05-22T04:51:28.229Z,7.13
2019-05-22T04:53:58.605Z,7.33
2019-05-22T04:56:29.747Z,7.03
2019-05-22T04:59:01.983Z,7.87
2019-05-22T05:01:32.244Z,7.73
2019-05-22T05:04:02.849Z,7.23
2019-05-22T05:06:35.581Z,7.53
2019-05-22T05:09:10.652Z,7.63
2019-05-22T05:11:42.357Z,6.90
2019-05-22T05:14:12.285Z,8.80
2019-05-22T05:16:42.066Z,8.70
2019-05-22T05:19:11.666Z,7.70
2019-05-22T05:21:41.522Z,7.63
2019-05-22T05:24:11.365Z,6.97
2019-05-22T05:26:41.121Z,7.20
2019-05-22T05:29:26.649Z,7.50
2019-05-22T05:31:56.880Z,7.10
2019-05-22T05:34:45.910Z,7.70
2019-05-22T05:37:18.560Z,7.63
2019-05-22T05:40:27.582Z,6.93
2019-05-22T05:42:58.237Z,6.83
2019-05-22T05:45:28.521Z,7.37
2019-05-22T05:47:59.499Z,6.40
2019-05-22T05:50:39.383Z,6.47
2019-05-22T05:53:03.499Z,6.57
2019-05-22T05:56:01.079Z,6.00
2019-05-22T05:58:32.224Z,6.10
2019-05-22T06:01:13.043Z,6.33
2019-05-22T06:03:43.379Z,5.33
2019-05-22T06:06:54.003Z,5.60
2019-05-22T06:09:24.203Z,5.73
2019-05-22T06:12:00.105Z,4.83
2019-05-22T06:14:32.075Z,5.20
2019-05-22T06:17:44.987Z,5.23
2019-05-22T06:20:19.271Z,4.93
2019-05-22T06:23:32.023Z,5.00
2019-05-22T06:26:02.790Z,5.40
2019-05-22T06:28:35.916Z,6.23
2019-05-22T06:31:06.526Z,5.97
2019-05-22T06:33:37.462Z,5.90
2019-05-22T06:36:12.755Z,5.40
2019-05-22T06:39:07.088Z,6.17
2019-05-22T06:41:38.540Z,6.00
2019-05-22T06:44:40.848Z,5.90
2019-05-22T06:47:17.490Z,6.00
2019-05-22T06:49:49.033Z,6.13
2019-05-22T06:52:19.328Z,5.90
2019-05-22T06:54:49.578Z,6.00
2019-05-22T06:57:25.617Z,6.10
2019-05-22T07:00:13.195Z,5.87
2019-05-22T07:02:50.239Z,5.80
2019-05-22T07:05:24.120Z,5.97
2019-05-22T07:07:57.288Z,5.80
2019-05-22T07:10:29.317Z,5.80
2019-05-22T07:13:02.062Z,5.40
2019-05-22T07:15:40.782Z,5.13
2019-05-22T07:18:13.164Z,5.13
2019-05-22T07:20:44.861Z,6.03
2019-05-22T07:23:20.595Z,5.67
2019-05-22T07:25:51.946Z,5.47
2019-05-22T07:28:22.529Z,5.97
2019-05-22T07:30:53.839Z,7.07
2019-05-22T07:33:24.561Z,6.53
2019-05-22T07:36:09.514Z,5.97
2019-05-22T07:38:26.822Z,6.27
2019-05-22T07:40:57.093Z,5.73
2019-05-22T07:43:27.505Z,6.03
2019-05-22T07:45:57.713Z,6.30
2019-05-22T07:48:29.019Z,6.00
2019-05-22T07:51:00.418Z,5.90
2019-05-22T07:53:30.421Z,5.37
2019-05-22T07:56:05.113Z,5.43
2019-05-22T07:58:35.870Z,5.43
2019-05-22T08:01:06.384Z,5.10
2019-05-22T08:03:37.333Z,6.10
2019-05-22T08:06:08.430Z,5.37
2019-05-22T08:08:39.845Z,5.53
2019-05-22T08:11:11.321Z,5.30
2019-05-22T08:13:43.553Z,4.57
2019-05-22T08:16:13.544Z,5.30
2019-05-22T08:18:43.687Z,5.47
2019-05-22T08:21:13.318Z,4.93
2019-05-22T08:23:43.129Z,4.83
2019-05-22T08:26:14.874Z,4.87
2019-05-22T08:28:44.851Z,5.23
2019-05-22T08:31:15.741Z,4.90
2019-05-22T08:33:46.285Z,6.40
2019-05-22T08:36:16.192Z,5.10
2019-05-22T08:38:46.606Z,5.57
2019-05-22T08:41:18.852Z,4.17
2019-05-22T08:44:13.986Z,5.20
2019-05-22T08:46:20.824Z,4.97
2019-05-22T08:48:51.698Z,4.93
2019-05-22T08:51:21.865Z,4.73
2019-05-22T08:53:53.053Z,5.03
2019-05-22T08:56:23.493Z,4.70
2019-05-22T08:58:54.196Z,5.17
2019-05-22T09:01:24.813Z,4.40
2019-05-22T09:03:54.711Z,4.23
2019-05-22T09:06:24.516Z,4.40
2019-05-22T09:08:54.265Z,4.47
2019-05-22T09:11:23.994Z,4.40
2019-05-22T09:13:53.752Z,4.50
2019-05-22T09:16:25.035Z,4.27
2019-05-22T09:18:54.802Z,4.40
2019-05-22T09:21:26.476Z,3.90
2019-05-22T09:23:56.639Z,5.00
2019-05-22T09:26:27.577Z,4.93
2019-05-22T09:28:57.160Z,4.73
2019-05-22T09:31:26.871Z,4.73
2019-05-22T09:33:56.505Z,5.00
2019-05-22T09:36:26.072Z,5.20
2019-05-22T09:38:56.069Z,4.77
2019-05-22T09:41:25.807Z,4.90
2019-05-22T09:43:56.146Z,5.70
2019-05-22T09:46:26.390Z,5.67
2019-05-22T09:48:57.481Z,4.80
2019-05-22T09:51:27.491Z,5.07
2019-05-22T09:53:57.896Z,5.37
2019-05-22T09:56:29.369Z,5.23
2019-05-22T09:58:59.137Z,4.63
2019-05-22T10:01:29.010Z,5.50
2019-05-22T10:03:58.836Z,5.13
2019-05-22T10:06:28.318Z,5.40
2019-05-22T10:08:58.307Z,5.20
2019-05-22T10:11:28.001Z,4.90
2019-05-22T10:13:57.483Z,4.80
2019-05-22T10:16:27.109Z,5.90
2019-05-22T10:18:56.830Z,4.93
2019-05-22T10:21:27.073Z,5.10
2019-05-22T10:23:57.603Z,4.90
2019-05-22T10:26:27.187Z,5.17
2019-05-22T10:28:57.095Z,5.10
2019-05-22T10:31:27.141Z,5.53
2019-05-22T10:33:57.413Z,4.83
2019-05-22T10:36:26.946Z,4.73
2019-05-22T10:38:56.829Z,5.30
2019-05-22T10:41:26.744Z,4.73
2019-05-22T10:43:56.757Z,4.90
2019-05-22T10:46:26.585Z,4.70
2019-05-22T10:48:56.648Z,4.27
2019-05-22T10:51:26.580Z,4.90
2019-05-22T10:53:56.293Z,4.33
2019-05-22T10:56:27.316Z,4.87
2019-05-22T10:58:57.205Z,4.40
2019-05-22T11:01:27.517Z,4.33
2019-05-22T11:03:57.774Z,4.90
2019-05-22T11:06:27.446Z,4.97
2019-05-22T11:08:58.268Z,5.00
2019-05-22T11:11:29.458Z,5.23
2019-05-22T11:14:01.985Z,5.17
2019-05-22T11:16:31.878Z,5.40
2019-05-22T11:19:04.139Z,5.30
2019-05-22T11:21:34.677Z,4.53
2019-05-22T11:24:04.759Z,5.20
2019-05-22T11:26:34.626Z,5.80
2019-05-22T11:29:05.969Z,5.20
2019-05-22T11:31:35.726Z,5.93
2019-05-22T11:34:06.545Z,5.40
2019-05-22T11:36:36.275Z,5.80
2019-05-22T11:39:08.934Z,5.57
2019-05-22T11:41:39.300Z,6.30
2019-05-22T11:44:09.324Z,4.97
2019-05-22T11:46:39.834Z,6.07
2019-05-22T11:49:09.665Z,6.13
2019-05-22T11:51:39.428Z,7.37
2019-05-22T11:54:10.041Z,6.40
2019-05-22T11:56:40.203Z,7.13
2019-05-22T11:59:11.227Z,7.63
2019-05-22T12:01:41.021Z,8.03
2019-05-22T12:04:13.053Z,8.80
2019-05-22T12:06:43.918Z,7.90
2019-05-22T12:09:15.349Z,7.73
2019-05-22T12:11:45.156Z,7.77
2019-05-22T12:14:16.290Z,7.53
2019-05-22T12:16:46.435Z,7.97
2019-05-22T12:19:16.575Z,7.53
2019-05-22T12:21:46.299Z,7.67
2019-05-22T12:24:26.952Z,9.27
2019-05-22T12:26:48.404Z,8.90
2019-05-22T12:29:19.011Z,8.90
2019-05-22T12:31:49.204Z,10.07
2019-05-22T12:34:19.326Z,10.53
2019-05-22T12:36:51.421Z,10.03
2019-05-22T12:39:23.410Z,9.47
2019-05-22T12:41:53.622Z,9.37
2019-05-22T12:44:23.791Z,9.67
2019-05-22T12:46:54.240Z,9.13
2019-05-22T12:49:26.938Z,10.17
2019-05-22T12:51:56.870Z,9.33
2019-05-22T12:54:36.782Z,9.30
2019-05-22T12:56:58.121Z,9.57
2019-05-22T12:59:28.886Z,9.27
2019-05-22T13:01:59.054Z,10.13
2019-05-22T13:04:30.935Z,10.60
2019-05-22T13:07:01.615Z,10.20
2019-05-22T13:09:32.083Z,10.97
2019-05-22T13:12:01.786Z,9.90
2019-05-22T13:14:31.430Z,10.33
2019-05-22T13:17:01.432Z,10.33
2019-05-22T13:19:33.220Z,10.77
2019-05-22T13:22:04.487Z,11.03
2019-05-22T13:24:36.658Z,10.90
2019-05-22T13:27:09.741Z,10.70
2019-05-22T13:29:40.601Z,10.23
2019-05-22T13:32:12.171Z,11.30
2019-05-22T13:34:42.405Z,10.83
2019-05-22T13:37:12.318Z,10.47
2019-05-22T13:39:42.161Z,11.87
2019-05-22T13:42:13.591Z,10.43
2019-05-22T13:44:43.400Z,11.03
2019-05-22T13:47:13.135Z,11.90
2019-05-22T13:49:45.018Z,10.43
2019-05-22T13:52:15.983Z,10.90
2019-05-22T13:54:46.086Z,10.83
2019-05-22T13:57:15.925Z,11.33
2019-05-22T13:59:45.746Z,10.53
2019-05-22T14:02:15.458Z,10.13
2019-05-22T14:04:45.086Z,11.50
2019-05-22T14:07:14.696Z,10.67
2019-05-22T14:09:44.409Z,10.90
2019-05-22T14:12:14.063Z,10.70
2019-05-22T14:14:43.870Z,10.43
2019-05-22T14:17:13.576Z,10.73
2019-05-22T14:19:43.226Z,10.87
2019-05-22T14:22:24.939Z,10.77
2019-05-22T14:24:54.413Z,11.17
2019-05-22T14:27:24.779Z,11.83
2019-05-22T14:29:54.790Z,11.03
2019-05-22T14:32:29.682Z,11.17
2019-05-22T14:34:56.396Z,11.37
2019-05-22T14:37:26.292Z,11.17
2019-05-22T14:39:56.261Z,11.67
2019-05-22T14:42:27.179Z,11.77
2019-05-22T14:44:57.295Z,11.00
2019-05-22T14:47:27.315Z,11.03
2019-05-22T14:49:57.201Z,11.07
2019-05-22T14:52:27.191Z,11.07
2019-05-22T14:54:57.289Z,11.70
2019-05-22T14:57:27.030Z,10.87
2019-05-22T14:59:57.808Z,10.00
2019-05-22T15:02:27.783Z,10.40
2019-05-22T15:04:58.320Z,10.60
2019-05-22T15:07:28.114Z,10.33
2019-05-22T15:09:57.723Z,9.83
2019-05-22T15:12:27.724Z,9.70
2019-05-22T15:14:57.205Z,10.50
2019-05-22T15:17:32.638Z,10.20
2019-05-22T15:19:59.045Z,9.33
2019-05-22T15:22:29.135Z,11.30
2019-05-22T15:24:59.345Z,10.53
2019-05-22T15:27:29.722Z,10.50
2019-05-22T15:29:59.584Z,11.03
2019-05-22T15:32:29.454Z,10.83
2019-05-22T15:34:58.963Z,10.87
2019-05-22T15:37:29.738Z,10.77
2019-05-22T15:40:00.034Z,11.13
2019-05-22T15:42:38.851Z,10.60
2019-05-22T15:45:14.299Z,11.57
2019-05-22T15:47:54.554Z,11.57
2019-05-22T15:50:21.086Z,9.90
2019-05-22T15:52:53.570Z,9.83
2019-05-22T15:55:25.337Z,10.80
2019-05-22T15:57:58.280Z,10.30
2019-05-22T16:00:31.493Z,11.30
2019-05-22T16:03:10.802Z,10.47
2019-05-22T16:05:42.200Z,10.87
2019-05-22T16:08:13.369Z,10.40
2019-05-22T16:10:44.802Z,9.77
2019-05-22T16:13:16.266Z,10.07
2019-05-22T16:15:48.481Z,10.60
2019-05-22T16:18:20.132Z,10.03
2019-05-22T16:20:50.826Z,10.47
2019-05-22T16:23:21.979Z,10.40
2019-05-22T16:25:53.456Z,10.03
2019-05-22T16:28:24.815Z,10.43
2019-05-22T16:30:56.405Z,10.03
2019-05-22T16:33:27.071Z,8.93
2019-05-22T16:35:56.931Z,9.50
2019-05-22T16:38:27.302Z,8.43
2019-05-22T16:40:57.884Z,9.03
2019-05-22T16:43:47.325Z,9.67
2019-05-22T16:46:00.291Z,8.93
2019-05-22T16:48:30.224Z,10.10
2019-05-22T16:51:00.700Z,8.87
2019-05-22T16:53:31.365Z,8.87
2019-05-22T16:56:01.533Z,8.77
2019-05-22T16:58:31.555Z,9.10
2019-05-22T17:01:01.188Z,11.40
2019-05-22T17:03:31.196Z,8.73
2019-05-22T17:06:01.183Z,9.07
2019-05-22T17:08:31.708Z,9.43
2019-05-22T17:11:03.633Z,9.70
2019-05-22T17:13:33.393Z,8.60
2019-05-22T17:16:03.618Z,8.63
2019-05-22T17:18:46.845Z,7.97
2019-05-22T17:21:07.403Z,8.10
2019-05-22T17:23:37.250Z,8.23
2019-05-22T17:26:07.624Z,7.90
2019-05-22T17:28:38.069Z,7.57
2019-05-22T17:31:08.423Z,6.83
2019-05-22T17:33:37.974Z,7.00
2019-05-22T17:36:07.896Z,7.30
2019-05-22T17:38:38.855Z,6.70
2019-05-22T17:41:10.193Z,6.60
2019-05-22T17:43:40.802Z,6.60
2019-05-22T17:46:11.736Z,6.03
2019-05-22T17:48:42.204Z,6.60
2019-05-22T17:51:12.650Z,7.00
2019-05-22T17:53:42.954Z,5.73
2019-05-22T17:56:12.739Z,6.13
2019-05-22T17:58:42.414Z,6.20
2019-05-22T18:01:12.173Z,5.63
2019-05-22T18:03:42.095Z,5.70
2019-05-22T18:06:12.633Z,6.90
2019-05-22T18:08:42.274Z,5.53
2019-05-22T18:11:12.613Z,5.60
2019-05-22T18:13:59.805Z,8.00
2019-05-22T18:16:30.466Z,6.43
2019-05-22T18:19:00.885Z,5.53
2019-05-22T18:21:32.163Z,5.60
2019-05-22T18:24:02.003Z,5.20
2019-05-22T18:26:31.645Z,5.63
2019-05-22T18:29:01.363Z,5.53
2019-05-22T18:31:31.027Z,5.37
2019-05-22T18:34:00.650Z,5.17
2019-05-22T18:36:30.181Z,4.97
2019-05-22T18:38:59.711Z,5.60
2019-05-22T18:41:29.291Z,4.77
2019-05-22T18:43:59.111Z,5.13
2019-05-22T18:46:28.883Z,5.77
2019-05-22T18:48:58.491Z,5.47
2019-05-22T18:51:28.505Z,5.50
2019-05-22T18:53:58.595Z,5.23
2019-05-22T18:56:28.168Z,5.33
2019-05-22T18:58:57.853Z,5.40
2019-05-22T19:01:27.632Z,5.23
2019-05-22T19:03:57.572Z,5.17
2019-05-22T19:06:30.715Z,5.50
2019-05-22T19:08:59.520Z,5.67
2019-05-22T19:11:29.362Z,5.60
2019-05-22T19:13:59.099Z,6.00
2019-05-22T19:16:28.822Z,5.40
2019-05-22T19:18:58.264Z,5.70
2019-05-22T19:21:28.036Z,5.67
2019-05-22T19:23:57.458Z,4.53
2019-05-22T19:26:26.945Z,4.50
2019-05-22T19:28:56.830Z,6.93
2019-05-22T19:31:26.706Z,6.27
2019-05-22T19:33:59.271Z,4.67
2019-05-22T19:36:28.888Z,4.10
2019-05-22T19:38:58.399Z,4.33
2019-05-22T19:41:28.194Z,4.90
2019-05-22T19:43:57.975Z,4.97
2019-05-22T19:46:27.527Z,4.40
2019-05-22T19:48:58.772Z,4.10
2019-05-22T19:51:28.655Z,4.93
2019-05-22T19:53:58.866Z,3.93
2019-05-22T19:56:28.313Z,4.27
2019-05-22T19:58:58.409Z,4.00
2019-05-22T20:01:29.909Z,3.77
2019-05-22T20:03:59.904Z,4.33
2019-05-22T20:06:29.851Z,3.60
2019-05-22T20:08:59.857Z,3.73
2019-05-22T20:11:29.831Z,3.67
2019-05-22T20:14:00.010Z,3.87
2019-05-22T20:16:29.729Z,3.60
2019-05-22T20:18:59.619Z,3.53
2019-05-22T20:21:29.767Z,3.90
2019-05-22T20:23:59.291Z,3.43
2019-05-22T20:26:28.966Z,4.00
2019-05-22T20:28:58.947Z,3.37
2019-05-22T20:31:28.762Z,3.93
2019-05-22T20:33:58.824Z,3.80
2019-05-22T20:36:28.625Z,3.63
2019-05-22T20:38:58.282Z,3.60
2019-05-22T20:41:28.673Z,3.57
2019-05-22T20:43:59.569Z,4.23
2019-05-22T20:46:30.749Z,3.37
2019-05-22T20:49:00.718Z,3.23
2019-05-22T20:51:31.105Z,3.33
2019-05-22T20:54:02.244Z,3.50
2019-05-22T20:56:33.974Z,3.27
2019-05-22T20:59:03.786Z,3.40
2019-05-22T21:01:33.829Z,2.87
2019-05-22T21:04:06.362Z,3.23
2019-05-22T21:06:40.108Z,3.70
2019-05-22T21:09:10.014Z,3.20
2019-05-22T21:11:40.464Z,3.10
2019-05-22T21:14:10.934Z,3.23
2019-05-22T21:16:41.182Z,3.30
2019-05-22T21:19:11.355Z,3.40
2019-05-22T21:21:41.087Z,3.20
2019-05-22T21:24:12.384Z,2.70
2019-05-22T21:26:43.907Z,3.70
2019-05-22T21:29:13.831Z,3.30
2019-05-22T21:31:47.546Z,2.90
2019-05-22T21:34:15.997Z,3.03
2019-05-22T21:36:45.583Z,3.60
2019-05-22T21:39:16.898Z,3.30
2019-05-22T21:41:46.821Z,3.70
2019-05-22T21:44:16.717Z,3.50
2019-05-22T21:46:46.495Z,3.43
2019-05-22T21:49:18.833Z,3.60
2019-05-22T21:51:48.522Z,3.10
2019-05-22T21:54:18.459Z,3.10
2019-05-22T21:56:47.895Z,4.20
2019-05-22T21:59:17.856Z,3.07
2019-05-22T22:01:55.561Z,3.83
2019-05-22T22:04:34.947Z,3.40
2019-05-22T22:07:05.079Z,3.57
2019-05-22T22:09:35.370Z,3.37
2019-05-22T22:12:06.980Z,3.03
2019-05-22T22:14:38.060Z,2.90
2019-05-22T22:17:09.136Z,2.93
2019-05-22T22:19:39.061Z,3.10
2019-05-22T22:22:11.725Z,2.80
2019-05-22T22:24:41.342Z,2.87
2019-05-22T22:27:11.701Z,3.03
2019-05-22T22:29:41.834Z,3.63
2019-05-22T22:32:13.106Z,3.00
2019-05-22T22:34:47.457Z,3.33
2019-05-22T22:37:18.017Z,3.57
2019-05-22T22:39:54.176Z,3.10
2019-05-22T22:42:26.499Z,3.10
2019-05-22T22:44:57.464Z,3.27
2019-05-22T22:47:44.040Z,3.23
2019-05-22T22:50:13.791Z,3.17
2019-05-22T22:52:45.645Z,3.00
2019-05-22T22:55:18.952Z,3.30
2019-05-22T22:57:50.820Z,3.20
2019-05-22T23:00:29.029Z,3.33
2019-05-22T23:02:59.870Z,3.10
2019-05-22T23:05:29.912Z,3.70
2019-05-22T23:08:00.987Z,3.07
2019-05-22T23:10:31.248Z,3.50
2019-05-22T23:13:01.240Z,3.30
2019-05-22T23:15:31.611Z,3.17
2019-05-22T23:18:02.070Z,3.47
2019-05-22T23:20:31.288Z,3.53
2019-05-22T23:22:59.405Z,3.27
2019-05-22T23:25:29.501Z,3.30
2019-05-22T23:27:59.219Z,3.00
2019-05-22T23:30:29.512Z,3.30
2019-05-22T23:32:59.015Z,3.57
2019-05-22T23:35:29.333Z,3.53
2019-05-22T23:37:58.991Z,3.50
2019-05-22T23:40:33.019Z,3.30
2019-05-22T23:43:02.955Z,3.50
2019-05-22T23:45:33.657Z,3.40
2019-05-22T23:48:11.947Z,4.50
2019-05-22T23:50:43.150Z,3.27
2019-05-22T23:53:13.459Z,3.50
2019-05-22T23:55:43.950Z,3.03
2019-05-22T23:58:16.190Z,3.33
